CheckWX is a tool to help pilots better visualize weather data.  It is not intended as a substitute for an official pre-flight weather briefing.

22:10:48 UTC

KAGC TAF
Allegheny County Airport
Pittsburgh, Pennsylvania, USA
KAGC 051732Z 0518/0618 28010G21KT P6SM OVC040 FM052200 27008KT P6SM BKN120 FM060900 20006KT P6SM BKN080 WS020/25035KT FM061500 23012G19KT P6SM OVC035

Dec-5@
18:00 UTC

Dec-5 @ 18:00 UTC

Dec-5@
22:00 UTC

Dec-5 @ 22:00 UTC

KAGC 051732Z 0518/0618 28010G21KT P6SM OVC040

Expired

Wind
  • 280° at 10 KTS
  • {Gusting to 21 KTS
Cloud Levels
  • Overcast at 4,000' AGL

Dec-5@
22:00 UTC

Dec-5 @ 22:00 UTC

Dec-6@
09:00 UTC

Dec-6 @ 09:00 UTC

FM052200 27008KT P6SM BKN120

From

From Standard forecast or significant change

Wind
  • 270° at 8 KTS
Cloud Levels
  • Broken at 12,000' AGL

Dec-6@
09:00 UTC

Dec-6 @ 09:00 UTC

Dec-6@
15:00 UTC

Dec-6 @ 15:00 UTC

FM060900 20006KT P6SM BKN080 WS020/25035KT

From

From Standard forecast or significant change

Wind
  • 200° at 6 KTS
Cloud Levels
  • Broken at 8,000' AGL

Dec-6@
15:00 UTC

Dec-6 @ 15:00 UTC

Dec-6@
18:00 UTC

Dec-6 @ 18:00 UTC

FM061500 23012G19KT P6SM OVC035

From

From Standard forecast or significant change

Wind
  • 230° at 12 KTS
  • {Gusting to 19 KTS
Cloud Levels
  • Overcast at 3,500' AGL